Flight Track Log - Related Links

Times and Time Zones

All times are in EDT time to prevent confusion due to time zone crossing. See the KAP927 flight status page for this flight to view local times or setup timezone preferences in your user account.

Time Position Orientation Groundspeed Altitude Reporting Facility
EDT Latitude Longitude Course Direction KTS MPH feet Rate Location/Type
Sat 07:11:01 AM 44.5386 -75.2914 148° Southeast 155 178 3,500  Level Boston Center
Sat 07:12:01 AM 44.5061 -75.2608 146° Southeast 155 178 4,000 500 Climbing Boston Center
Sat 07:13:01 AM 44.4753 -75.2331 147° Southeast 150 173 4,500 450 Climbing Boston Center
Sat 07:14:01 AM 44.4406 -75.2053 150° Southeast 140 161 4,900 400 Climbing Boston Center
Sat 07:15:00 AM 44.5222 -75.3231 149° Southeast  Level Estimated
Sat 07:15:01 AM 44.4100 -75.1778 147° Southeast 140 161 5,300  Level Boston Center
Sat 07:16:00 AM 44.4901 -75.2951 148° Southeast  Level FlightAware Approximate
Sat 07:16:01 AM 44.3772 -75.1558 154° Southeast 135 155 5,700  Level Boston Center
Sat 07:17:01 AM 44.3447 -75.1225 144° Southeast 135 155 6,100 450 Climbing Boston Center
Sat 07:18:01 AM 44.3119 -75.0978 152° Southeast 135 155 6,600 450 Climbing Boston Center
Sat 07:19:01 AM 44.2833 -75.0703 145° Southeast 135 155 7,000 150 Climbing Boston Center
Sat 07:20:01 AM 44.2464 -75.0456 154° Southeast 140 161 6,900  Descending Boston Center
Sat 07:21:01 AM 44.2097 -75.0092 145° Southeast 151 174 7,000 50 Climbing Boston Center
Sat 07:22:01 AM 44.1731 -74.9672 141° Southeast 157 181 7,000  Level Boston Center
Sat 07:23:01 AM 44.1322 -74.9364 152° Southeast 163 188 7,000  Level Boston Center
Sat 07:24:01 AM 44.0911 -74.9058 152° Southeast 163 188 7,000  Level Boston Center
Sat 07:25:13 AM 44.0500 -74.8722 150° Southeast 168 193 7,000  Level Boston Center
Sat 07:26:13 AM 44.0031 -74.8300 147° Southeast 173 199 7,000  Level Boston Center
Sat 07:27:13 AM 43.9600 -74.7994 153° Southeast 173 199 7,000  Level Boston Center
Sat 07:28:13 AM 43.9231 -74.7664 147° Southeast 173 199 7,000 50 Level Boston Center
Sat 07:29:13 AM 43.8861 -74.7361 149° Southeast 161 185 7,100 50 Climbing Boston Center
Sat 07:30:13 AM 43.8494 -74.7058 149° Southeast 161 185 7,100 -50 Level Boston Center
Sat 07:31:13 AM 43.8103 -74.6783 153° Southeast 161 185 7,000  Descending Boston Center
Sat 07:32:13 AM 43.7733 -74.6456 147° Southeast 156 180 7,100 50 Climbing Boston Center
Sat 07:33:13 AM 43.7447 -74.6214 149° Southeast 156 180 7,100 -50 Level Boston Center
Sat 07:34:13 AM 43.7017 -74.5825 147° Southeast 156 180 7,000 -50 Descending Boston Center
Sat 07:35:13 AM 43.6647 -74.5525 150° Southeast 156 180 7,000 50 Level Boston Center
Sat 07:36:13 AM 43.6278 -74.5225 150° Southeast 156 180 7,100 50 Climbing Boston Center
Sat 07:37:13 AM 43.5908 -74.4925 150° Southeast 156 180 7,100  Level Boston Center
Sat 07:38:13 AM 43.5558 -74.4628 148° Southeast 156 180 7,100  Level Boston Center
Sat 07:39:13 AM 43.5189 -74.4328 150° Southeast 156 180 7,100  Level Boston Center
Sat 07:40:13 AM 43.4819 -74.4031 150° Southeast 156 180 7,100  Level Boston Center
Sat 07:41:13 AM 43.4428 -74.3703 149° Southeast 156 180 7,100  Level Boston Center
Sat 07:41:47 AM 43.4203 -74.3497 146° Southeast 158 182 7,100  Level Boston Center
Sat 07:43:12 AM 43.3667 -74.3081 151° Southeast 156 180 7,100  Level Boston Center
Sat 07:44:07 AM 43.3317 -74.2811 151° Southeast 155 178 7,100  Level Boston Center
Sat 07:45:07 AM 43.2947 -74.2486 147° Southeast 155 178 7,100 -99 Level Boston Center
Sat 07:46:08 AM 43.2597 -74.2164 146° Southeast 156 180 6,900 -295 Descending Boston Center
Sat 07:47:09 AM 43.2208 -74.1725 141° Southeast 176 203 6,500 -446 Descending Boston Center
Sat 07:48:09 AM 43.1800 -74.1258 140° Southeast 188 216 6,000 -545 Descending Boston Center
Sat 07:49:10 AM 43.1431 -74.0764 136° Southeast 191 220 5,400 -541 Descending Boston Center
Sat 07:50:11 AM 43.1042 -74.0297 139° Southeast 189 217 4,900 -545 Descending Boston Center
Sat 07:51:11 AM 43.0653 -73.9833 139° Southeast 184 212 4,300 -639 Descending Boston Center
Sat 07:52:13 AM 43.0264 -73.9311 136° Southeast 184 212 3,600 -590 Descending Boston Center
Sat 07:53:13 AM 42.9872 -73.8847 139° Southeast 184 212 3,100 -500 Descending Boston Center
Sat 07:54:13 AM 42.9481 -73.8469 145° Southeast 173 199 2,600 -500 Descending Boston Center
Sat 07:54:13 AM 42.9481 -73.8469 145° Southeast 184 212 2,600 -300 Level Boston Center
Sat 07:55:13 AM 42.9069 -73.8178 153° Southeast 171 197 2,300 -300 Descending Boston Center
Sat 07:56:13 AM 42.8714 -73.8111 172° South 164 189 2,000 -393 Descending Boston Center
Sat 07:57:15 AM 42.8172 -73.8100 179° South 162 186 1,500 -634 Descending Boston Center
Sat 07:58:16 AM 42.7756 -73.8064 176° South 140 161 700 -787 Descending Boston Center
Sat 08:00:00 AM 42.7491 -73.8020 160° South  Level Estimated
Sat 08:07:00 AM 42.7491 -73.8020 160° South  Level Estimated
Sat 08:08:00 AM 42.7491 -73.8020 160° South  Level Estimated
Sat 08:09:00 AM 42.7491 -73.8020 160° South  Level Estimated

Login

Don't have an account? Register now (free) for customized features, flight alerts, and more!